Baie-Saint-Paul, Canada
Current Conditions -  °F | °C
As of 7:00 AM on Monday 22 Dec 2014 (Local Time) from CYOY Reporting Station
Overcast Overcast  
Wind Chill: 12°   Ceiling: 1200
Heat Index: 12°   Visibility: 3mi
Dew Point:   Wind: 2mph
Humidity: 85%   Direction: 40°NE
Pressure: 30.4"   Gusts: NA
Location:  47.43°N, 70.5°W
Report Text: CYOY 221200Z AUTO 04002KT 3SM OVC012 M11/M13 A3040 RMK SLP308
Loading
Personal Weather Stations






























Interactive Weather Map New forecast layout! Learn more

10-Day Weather Forecast

Advertisements
Track Severe Weather on mobile